Leesburg, Ohio
Current Conditions -  °F | °C
As of 5:54 AM on Sunday 23 Nov 2014 (Local Time) from KILN Reporting Station
Overcast Overcast  
Wind Chill: 44°   Ceiling: 8000
Heat Index: 48°   Visibility: 10mi
Dew Point: 37°   Wind: 9mph
Humidity: 66%   Direction: 180°S
Pressure: 30.01"   Gusts: NA
Location:  39.35°N, 83.55°W
Report Text: KILN 231054Z AUTO 18008KT 10SM FEW036 OVC080 09/03 A3001 RMK AO2 SLP172 T00890028
Loading
Personal Weather Stations






























Interactive Weather Map New forecast layout! Learn more

10-Day Weather Forecast

Advertisements
Track Severe Weather on mobile